Beale Air Force Base
KBAB : rendu visible

Aérodrome :











RETROUVEZ-NOUS SUR...

 
LOGIN :

S'inscrire | Disclaimer

   EN    FR    IT 

 









Légende :    VFR   VFR Marginal   IFR   IFR Intensif   IFR Très Intensif
Visi : 
Plafond : 
>= 8 km
>= 3000ft
5 à 8 km
1000 à 3000 ft
1500m à 5 km
500 à 1000 ft
800 à 1500m
200 à 500 ft
< 800m
< 200 ft
Symboles :   Orages  Brouillard  Fortes neiges  Fortes précipitations  Vent > 20 kt






- Altitude de l'aérodrome : 113 ft


KBAB - Beale Air Force Base

DERNIER METAR :
  • 121033Z COR AUTO 00000KT 10SM CLR 10/05 A3005 RMK AO2A SLP179 $ COR 1045

METARs EXPIRÉS :
  • 121013Z COR AUTO 00000KT 10SM CLR 09/04 A3005 RMK AO2A SLP179 $ COR 1017
  • 120958Z AUTO 00000KT 1 3/8SM HZ CLR 09/04 A3005 RMK AO2 SLP179 T00910043 $
  • 120953Z AUTO 00000KT 1 1/4SM HZ CLR 10/04 A3005 RMK AO2 SLP179 $
  • 120923Z AUTO 08003KT 1SM R33/5000V5500FT HZ CLR 11/05 A3005 RMK AO2 VIS 1V2 SLP179 $
  • 120908Z AUTO 00000KT 1 3/4SM HZ CLR 13/05 A3005 RMK AO2 VIS 3/4V1 3/4 SLP179 $
  • 120903Z AUTO 00000KT 1SM R33/4000VP6000FT HZ CLR 12/05 A3005 RMK AO2 SLP179 $
  • 120828Z AUTO 11004KT 3/4SM R33/4000FT HZ CLR 10/04 A3005 RMK AO2 SLP179 $
  • 120813Z AUTO 11005KT 5/8SM R33/3500V4000FT HZ CLR 12/05 A3005 RMK AO2 SLP179 $
  • 120758Z AUTO 10004KT 3/4SM R33/4000V4500FT HZ CLR 12/05 A3005 RMK AO2 SLP179 T01180050 402440060 $

Prévision TAF périmée.



MET'MAP, la Météo Aéronautique d'un coup d'oeil ! - Copyright ORBIFLY Décembre 2007 - Disclaimer

ORBIFLY MET'MAP TEAM :

Programmation & Développement : Alexandra Zaïnal
Conception & Développement : Baudouin d'Aumeries
Co-Programmation & Développement : Marc-Olivier Méhu
Soutien technique & logistique : Manuel Goepfert

Contact : metmap@orbifly.com




SOURCES & CREDITS :

   NOAA       Earth
Advisory